sensor_id;sensor_type;location;lat;lon;timestamp;temperature;humidity
4453;DHT22;2239;48.152;11.584;2024-03-02T00:00:18;6.80;99.90
4453;DHT22;2239;48.152;11.584;2024-03-02T00:02:49;6.70;99.90
4453;DHT22;2239;48.152;11.584;2024-03-02T00:05:17;6.70;99.90
4453;DHT22;2239;48.152;11.584;2024-03-02T00:07:44;6.70;99.90
4453;DHT22;2239;48.152;11.584;2024-03-02T00:10:14;6.70;99.90
4453;DHT22;2239;48.152;11.584;2024-03-02T00:12:41;6.70;99.90
4453;DHT22;2239;48.152;11.584;2024-03-02T00:15:31;6.70;99.90
4453;DHT22;2239;48.152;11.584;2024-03-02T00:18:01;6.70;99.90
4453;DHT22;2239;48.152;11.584;2024-03-02T00:20:26;6.60;99.90
4453;DHT22;2239;48.152;11.584;2024-03-02T00:23:18;6.60;99.90
4453;DHT22;2239;48.152;11.584;2024-03-02T00:25:47;6.60;99.90
4453;DHT22;2239;48.152;11.584;2024-03-02T00:28:19;6.60;99.90
4453;DHT22;2239;48.152;11.584;2024-03-02T00:36:08;6.60;99.90
4453;DHT22;2239;48.152;11.584;2024-03-02T00:38:35;6.60;99.90
4453;DHT22;2239;48.152;11.584;2024-03-02T00:41:06;6.60;99.90
4453;DHT22;2239;48.152;11.584;2024-03-02T00:43:42;6.60;99.90
4453;DHT22;2239;48.152;11.584;2024-03-02T00:46:08;6.60;99.90
4453;DHT22;2239;48.152;11.584;2024-03-02T00:48:34;6.50;99.90
4453;DHT22;2239;48.152;11.584;2024-03-02T00:51:03;6.50;99.90
4453;DHT22;2239;48.152;11.584;2024-03-02T00:53:30;6.50;99.90
4453;DHT22;2239;48.152;11.584;2024-03-02T00:55:56;6.50;99.90
4453;DHT22;2239;48.152;11.584;2024-03-02T00:58:22;6.50;99.90
4453;DHT22;2239;48.152;11.584;2024-03-02T01:00:47;6.50;99.90
4453;DHT22;2239;48.152;11.584;2024-03-02T01:03:13;6.40;99.90
4453;DHT22;2239;48.152;11.584;2024-03-02T01:05:42;6.40;99.90
4453;DHT22;2239;48.152;11.584;2024-03-02T01:08:08;6.40;99.90
4453;DHT22;2239;48.152;11.584;2024-03-02T01:10:34;6.40;99.90
4453;DHT22;2239;48.152;11.584;2024-03-02T01:13:05;6.40;99.90
4453;DHT22;2239;48.152;11.584;2024-03-02T01:15:31;6.40;99.90
4453;DHT22;2239;48.152;11.584;2024-03-02T01:17:56;6.40;99.90
4453;DHT22;2239;48.152;11.584;2024-03-02T01:20:22;6.40;99.90
4453;DHT22;2239;48.152;11.584;2024-03-02T01:22:48;6.40;99.90
4453;DHT22;2239;48.152;11.584;2024-03-02T01:25:13;6.40;99.90
4453;DHT22;2239;48.152;11.584;2024-03-02T01:27:39;6.50;99.90
4453;DHT22;2239;48.152;11.584;2024-03-02T01:30:05;6.50;99.90
4453;DHT22;2239;48.152;11.584;2024-03-02T01:32:31;6.50;99.90
4453;DHT22;2239;48.152;11.584;2024-03-02T01:34:56;6.60;99.90
4453;DHT22;2239;48.152;11.584;2024-03-02T01:37:22;6.60;99.90
4453;DHT22;2239;48.152;11.584;2024-03-02T01:39:47;6.50;99.90
4453;DHT22;2239;48.152;11.584;2024-03-02T01:42:13;6.50;99.90
4453;DHT22;2239;48.152;11.584;2024-03-02T01:44:40;6.50;99.90
4453;DHT22;2239;48.152;11.584;2024-03-02T01:47:05;6.50;99.90
4453;DHT22;2239;48.152;11.584;2024-03-02T01:49:32;6.50;99.90
4453;DHT22;2239;48.152;11.584;2024-03-02T01:51:59;6.50;99.90
4453;DHT22;2239;48.152;11.584;2024-03-02T01:54:25;6.40;99.90
4453;DHT22;2239;48.152;11.584;2024-03-02T01:56:50;6.50;99.90
4453;DHT22;2239;48.152;11.584;2024-03-02T01:59:16;6.50;99.90
4453;DHT22;2239;48.152;11.584;2024-03-02T02:01:41;6.50;99.90
4453;DHT22;2239;48.152;11.584;2024-03-02T02:04:07;6.40;99.90
4453;DHT22;2239;48.152;11.584;2024-03-02T02:06:32;6.40;99.90
4453;DHT22;2239;48.152;11.584;2024-03-02T02:08:58;6.40;99.90
4453;DHT22;2239;48.152;11.584;2024-03-02T02:11:24;6.40;99.90
4453;DHT22;2239;48.152;11.584;2024-03-02T02:13:50;6.40;99.90
4453;DHT22;2239;48.152;11.584;2024-03-02T02:16:15;6.50;99.90
4453;DHT22;2239;48.152;11.584;2024-03-02T02:18:41;6.40;99.90
4453;DHT22;2239;48.152;11.584;2024-03-02T02:21:06;6.40;99.90
4453;DHT22;2239;48.152;11.584;2024-03-02T02:23:32;6.40;99.90
4453;DHT22;2239;48.152;11.584;2024-03-02T02:25:58;6.40;99.90
4453;DHT22;2239;48.152;11.584;2024-03-02T02:28:23;6.40;99.90
4453;DHT22;2239;48.152;11.584;2024-03-02T02:30:48;6.30;99.90
4453;DHT22;2239;48.152;11.584;2024-03-02T02:33:14;6.30;99.90
4453;DHT22;2239;48.152;11.584;2024-03-02T02:35:40;6.30;99.90
4453;DHT22;2239;48.152;11.584;2024-03-02T02:38:05;6.30;99.90
4453;DHT22;2239;48.152;11.584;2024-03-02T02:40:31;6.30;99.90
4453;DHT22;2239;48.152;11.584;2024-03-02T02:42:57;6.30;99.90
4453;DHT22;2239;48.152;11.584;2024-03-02T02:45:24;6.30;99.90
4453;DHT22;2239;48.152;11.584;2024-03-02T02:47:50;6.20;99.90
4453;DHT22;2239;48.152;11.584;2024-03-02T02:50:15;6.20;99.90
4453;DHT22;2239;48.152;11.584;2024-03-02T02:52:41;6.20;99.90
4453;DHT22;2239;48.152;11.584;2024-03-02T02:55:09;6.30;99.90
4453;DHT22;2239;48.152;11.584;2024-03-02T02:57:35;6.30;99.90
4453;DHT22;2239;48.152;11.584;2024-03-02T03:00:05;6.20;99.90
4453;DHT22;2239;48.152;11.584;2024-03-02T03:02:38;6.30;99.90
4453;DHT22;2239;48.152;11.584;2024-03-02T03:05:05;6.30;99.90
4453;DHT22;2239;48.152;11.584;2024-03-02T03:07:31;6.30;99.90
4453;DHT22;2239;48.152;11.584;2024-03-02T03:09:58;6.30;99.90
4453;DHT22;2239;48.152;11.584;2024-03-02T03:12:23;6.30;99.90
4453;DHT22;2239;48.152;11.584;2024-03-02T03:14:49;6.40;99.90
4453;DHT22;2239;48.152;11.584;2024-03-02T03:17:14;6.40;99.90
4453;DHT22;2239;48.152;11.584;2024-03-02T03:19:40;6.40;99.90
4453;DHT22;2239;48.152;11.584;2024-03-02T03:22:05;6.40;99.90
4453;DHT22;2239;48.152;11.584;2024-03-02T03:24:31;6.40;99.90
4453;DHT22;2239;48.152;11.584;2024-03-02T03:26:58;6.50;99.90
4453;DHT22;2239;48.152;11.584;2024-03-02T03:29:23;6.50;99.90
4453;DHT22;2239;48.152;11.584;2024-03-02T03:31:49;6.50;99.90
4453;DHT22;2239;48.152;11.584;2024-03-02T03:34:14;6.50;99.90
4453;DHT22;2239;48.152;11.584;2024-03-02T03:36:41;6.40;99.90
4453;DHT22;2239;48.152;11.584;2024-03-02T03:39:07;6.50;99.90
4453;DHT22;2239;48.152;11.584;2024-03-02T03:41:32;6.40;99.90
4453;DHT22;2239;48.152;11.584;2024-03-02T03:43:58;6.40;99.90
4453;DHT22;2239;48.152;11.584;2024-03-02T03:46:24;6.40;99.90
4453;DHT22;2239;48.152;11.584;2024-03-02T03:48:49;6.40;99.90
4453;DHT22;2239;48.152;11.584;2024-03-02T03:51:15;6.40;99.90
4453;DHT22;2239;48.152;11.584;2024-03-02T03:53:40;6.40;99.90
4453;DHT22;2239;48.152;11.584;2024-03-02T03:56:06;6.40;99.90
4453;DHT22;2239;48.152;11.584;2024-03-02T03:58:31;6.50;99.90
4453;DHT22;2239;48.152;11.584;2024-03-02T04:00:57;6.50;99.90
4453;DHT22;2239;48.152;11.584;2024-03-02T04:03:23;6.50;99.90
4453;DHT22;2239;48.152;11.584;2024-03-02T04:05:48;6.40;99.90
4453;DHT22;2239;48.152;11.584;2024-03-02T04:08:14;6.40;99.90
4453;DHT22;2239;48.152;11.584;2024-03-02T04:10:39;6.40;99.90
4453;DHT22;2239;48.152;11.584;2024-03-02T04:13:05;6.30;99.90
4453;DHT22;2239;48.152;11.584;2024-03-02T04:15:31;6.30;99.90
4453;DHT22;2239;48.152;11.584;2024-03-02T04:17:56;6.30;99.90
4453;DHT22;2239;48.152;11.584;2024-03-02T04:20:22;6.30;99.90
4453;DHT22;2239;48.152;11.584;2024-03-02T04:22:47;6.20;99.90
4453;DHT22;2239;48.152;11.584;2024-03-02T04:25:13;6.20;99.90
4453;DHT22;2239;48.152;11.584;2024-03-02T04:27:38;6.20;99.90
4453;DHT22;2239;48.152;11.584;2024-03-02T04:30:05;6.20;99.90
4453;DHT22;2239;48.152;11.584;2024-03-02T04:32:30;6.20;99.90
4453;DHT22;2239;48.152;11.584;2024-03-02T04:34:57;6.20;99.90
4453;DHT22;2239;48.152;11.584;2024-03-02T04:37:22;6.20;99.90
4453;DHT22;2239;48.152;11.584;2024-03-02T04:39:48;6.30;99.90
4453;DHT22;2239;48.152;11.584;2024-03-02T04:42:13;6.30;99.90
4453;DHT22;2239;48.152;11.584;2024-03-02T04:44:39;6.40;99.90
4453;DHT22;2239;48.152;11.584;2024-03-02T04:47:05;6.30;99.90
4453;DHT22;2239;48.152;11.584;2024-03-02T04:49:30;6.40;99.90
4453;DHT22;2239;48.152;11.584;2024-03-02T04:51:56;6.40;99.90
4453;DHT22;2239;48.152;11.584;2024-03-02T04:54:24;6.40;99.90
4453;DHT22;2239;48.152;11.584;2024-03-02T04:56:50;6.40;99.90
4453;DHT22;2239;48.152;11.584;2024-03-02T04:59:17;6.50;99.90
4453;DHT22;2239;48.152;11.584;2024-03-02T05:01:43;6.50;99.90
4453;DHT22;2239;48.152;11.584;2024-03-02T05:04:09;6.50;99.90
4453;DHT22;2239;48.152;11.584;2024-03-02T05:06:38;6.60;99.90
4453;DHT22;2239;48.152;11.584;2024-03-02T05:09:05;6.60;99.90
4453;DHT22;2239;48.152;11.584;2024-03-02T05:11:31;6.60;99.90
4453;DHT22;2239;48.152;11.584;2024-03-02T05:14:03;6.70;99.90
4453;DHT22;2239;48.152;11.584;2024-03-02T05:16:29;6.70;99.90
4453;DHT22;2239;48.152;11.584;2024-03-02T05:18:54;6.70;99.90
4453;DHT22;2239;48.152;11.584;2024-03-02T05:21:20;6.80;99.90
4453;DHT22;2239;48.152;11.584;2024-03-02T05:23:46;6.80;99.90
4453;DHT22;2239;48.152;11.584;2024-03-02T05:26:11;6.80;99.90
4453;DHT22;2239;48.152;11.584;2024-03-02T05:28:38;6.80;99.90
4453;DHT22;2239;48.152;11.584;2024-03-02T05:31:04;6.80;99.90
4453;DHT22;2239;48.152;11.584;2024-03-02T05:33:30;6.70;99.90
4453;DHT22;2239;48.152;11.584;2024-03-02T05:35:57;6.60;99.90
4453;DHT22;2239;48.152;11.584;2024-03-02T05:38:22;6.60;99.90
4453;DHT22;2239;48.152;11.584;2024-03-02T05:40:48;6.60;99.90
4453;DHT22;2239;48.152;11.584;2024-03-02T05:43:14;6.60;99.90
4453;DHT22;2239;48.152;11.584;2024-03-02T05:45:39;6.60;99.90
4453;DHT22;2239;48.152;11.584;2024-03-02T05:48:07;6.60;99.90
4453;DHT22;2239;48.152;11.584;2024-03-02T05:50:33;6.60;99.90
4453;DHT22;2239;48.152;11.584;2024-03-02T05:52:58;6.60;99.90
4453;DHT22;2239;48.152;11.584;2024-03-02T05:55:24;6.60;99.90
4453;DHT22;2239;48.152;11.584;2024-03-02T05:57:50;6.70;99.90
4453;DHT22;2239;48.152;11.584;2024-03-02T06:00:34;6.80;99.90
4453;DHT22;2239;48.152;11.584;2024-03-02T06:02:59;6.80;99.90
4453;DHT22;2239;48.152;11.584;2024-03-02T06:05:25;6.80;99.90
4453;DHT22;2239;48.152;11.584;2024-03-02T06:07:50;6.80;99.90
4453;DHT22;2239;48.152;11.584;2024-03-02T06:10:16;6.80;99.90
4453;DHT22;2239;48.152;11.584;2024-03-02T06:12:42;6.80;99.90
4453;DHT22;2239;48.152;11.584;2024-03-02T06:15:08;6.90;99.90
4453;DHT22;2239;48.152;11.584;2024-03-02T06:17:35;6.90;99.90
4453;DHT22;2239;48.152;11.584;2024-03-02T06:20:01;6.90;99.90
4453;DHT22;2239;48.152;11.584;2024-03-02T06:22:26;6.90;99.90
4453;DHT22;2239;48.152;11.584;2024-03-02T06:24:52;6.90;99.90
4453;DHT22;2239;48.152;11.584;2024-03-02T06:27:17;6.80;99.90
4453;DHT22;2239;48.152;11.584;2024-03-02T06:29:43;6.80;99.90
4453;DHT22;2239;48.152;11.584;2024-03-02T06:32:08;6.80;99.90
4453;DHT22;2239;48.152;11.584;2024-03-02T06:34:34;6.80;99.90
4453;DHT22;2239;48.152;11.584;2024-03-02T06:36:59;6.80;99.90
4453;DHT22;2239;48.152;11.584;2024-03-02T06:39:25;6.70;99.90
4453;DHT22;2239;48.152;11.584;2024-03-02T06:41:51;6.70;99.90
4453;DHT22;2239;48.152;11.584;2024-03-02T06:44:17;6.80;99.90
4453;DHT22;2239;48.152;11.584;2024-03-02T06:46:42;6.80;99.90
4453;DHT22;2239;48.152;11.584;2024-03-02T06:49:08;6.70;99.90
4453;DHT22;2239;48.152;11.584;2024-03-02T06:51:35;6.70;99.90
4453;DHT22;2239;48.152;11.584;2024-03-02T06:54:01;6.70;99.90
4453;DHT22;2239;48.152;11.584;2024-03-02T06:56:26;6.80;99.90
4453;DHT22;2239;48.152;11.584;2024-03-02T06:58:52;6.70;99.90
4453;DHT22;2239;48.152;11.584;2024-03-02T07:01:17;6.70;99.90
4453;DHT22;2239;48.152;11.584;2024-03-02T07:03:43;6.80;99.90
4453;DHT22;2239;48.152;11.584;2024-03-02T07:06:09;6.80;99.90
4453;DHT22;2239;48.152;11.584;2024-03-02T07:08:34;6.80;99.90
4453;DHT22;2239;48.152;11.584;2024-03-02T07:11:00;6.80;99.90
4453;DHT22;2239;48.152;11.584;2024-03-02T07:13:26;6.90;99.90
4453;DHT22;2239;48.152;11.584;2024-03-02T07:15:52;6.90;99.90
4453;DHT22;2239;48.152;11.584;2024-03-02T07:18:36;6.90;99.90
4453;DHT22;2239;48.152;11.584;2024-03-02T07:21:09;7.00;99.90
4453;DHT22;2239;48.152;11.584;2024-03-02T07:23:36;7.00;99.90
4453;DHT22;2239;48.152;11.584;2024-03-02T07:26:01;7.10;99.90
4453;DHT22;2239;48.152;11.584;2024-03-02T07:28:27;7.10;99.90
4453;DHT22;2239;48.152;11.584;2024-03-02T07:31:02;7.20;99.90
4453;DHT22;2239;48.152;11.584;2024-03-02T07:33:28;7.30;99.90
4453;DHT22;2239;48.152;11.584;2024-03-02T07:35:54;7.30;99.90
4453;DHT22;2239;48.152;11.584;2024-03-02T07:38:20;7.40;99.90
4453;DHT22;2239;48.152;11.584;2024-03-02T07:40:47;7.50;99.90
4453;DHT22;2239;48.152;11.584;2024-03-02T07:43:12;7.60;99.90
4453;DHT22;2239;48.152;11.584;2024-03-02T07:45:38;7.90;99.90
4453;DHT22;2239;48.152;11.584;2024-03-02T07:48:04;8.10;99.90
4453;DHT22;2239;48.152;11.584;2024-03-02T07:50:29;8.40;99.90
4453;DHT22;2239;48.152;11.584;2024-03-02T07:53:00;8.80;99.90
4453;DHT22;2239;48.152;11.584;2024-03-02T07:55:26;9.40;99.90
4453;DHT22;2239;48.152;11.584;2024-03-02T07:57:52;10.00;99.90
4453;DHT22;2239;48.152;11.584;2024-03-02T08:00:17;10.40;99.90
4453;DHT22;2239;48.152;11.584;2024-03-02T08:02:43;10.90;99.90
4453;DHT22;2239;48.152;11.584;2024-03-02T08:05:08;11.40;99.90
4453;DHT22;2239;48.152;11.584;2024-03-02T08:07:34;11.90;99.90
4453;DHT22;2239;48.152;11.584;2024-03-02T08:10:00;12.40;99.90
4453;DHT22;2239;48.152;11.584;2024-03-02T08:12:26;13.00;99.90
4453;DHT22;2239;48.152;11.584;2024-03-02T08:14:51;13.50;99.90
4453;DHT22;2239;48.152;11.584;2024-03-02T08:17:17;13.40;99.90
4453;DHT22;2239;48.152;11.584;2024-03-02T08:19:43;13.50;99.50
4453;DHT22;2239;48.152;11.584;2024-03-02T08:22:09;13.80;99.20
4453;DHT22;2239;48.152;11.584;2024-03-02T08:24:35;14.10;98.70
4453;DHT22;2239;48.152;11.584;2024-03-02T08:27:01;14.30;98.20
4453;DHT22;2239;48.152;11.584;2024-03-02T08:29:27;14.70;98.20
4453;DHT22;2239;48.152;11.584;2024-03-02T08:31:53;15.90;98.80
4453;DHT22;2239;48.152;11.584;2024-03-02T08:34:19;16.70;97.20
4453;DHT22;2239;48.152;11.584;2024-03-02T08:36:45;17.40;94.20
4453;DHT22;2239;48.152;11.584;2024-03-02T08:39:11;17.80;93.20
4453;DHT22;2239;48.152;11.584;2024-03-02T08:41:41;18.10;92.20
4453;DHT22;2239;48.152;11.584;2024-03-02T08:44:07;18.30;91.40
4453;DHT22;2239;48.152;11.584;2024-03-02T08:46:33;17.80;89.30
4453;DHT22;2239;48.152;11.584;2024-03-02T08:48:58;16.90;90.60
4453;DHT22;2239;48.152;11.584;2024-03-02T08:51:24;16.60;91.40
4453;DHT22;2239;48.152;11.584;2024-03-02T08:53:49;16.60;92.20
4453;DHT22;2239;48.152;11.584;2024-03-02T08:56:15;16.50;93.60
4453;DHT22;2239;48.152;11.584;2024-03-02T08:58:41;15.70;93.30
4453;DHT22;2239;48.152;11.584;2024-03-02T09:01:07;15.30;94.40
4453;DHT22;2239;48.152;11.584;2024-03-02T09:03:34;14.90;94.90
4453;DHT22;2239;48.152;11.584;2024-03-02T09:06:00;14.70;96.00
4453;DHT22;2239;48.152;11.584;2024-03-02T09:08:26;14.80;95.90
4453;DHT22;2239;48.152;11.584;2024-03-02T09:10:51;14.90;95.00
4453;DHT22;2239;48.152;11.584;2024-03-02T09:13:17;14.90;95.70
4453;DHT22;2239;48.152;11.584;2024-03-02T09:15:43;15.10;95.00
4453;DHT22;2239;48.152;11.584;2024-03-02T09:18:10;15.50;94.60
4453;DHT22;2239;48.152;11.584;2024-03-02T09:20:35;15.60;93.80
4453;DHT22;2239;48.152;11.584;2024-03-02T09:23:01;15.40;93.40
4453;DHT22;2239;48.152;11.584;2024-03-02T09:25:26;15.50;93.40
4453;DHT22;2239;48.152;11.584;2024-03-02T09:27:52;15.50;93.00
4453;DHT22;2239;48.152;11.584;2024-03-02T09:30:17;15.20;94.10
4453;DHT22;2239;48.152;11.584;2024-03-02T09:32:43;15.80;94.30
4453;DHT22;2239;48.152;11.584;2024-03-02T09:35:09;16.10;92.50
4453;DHT22;2239;48.152;11.584;2024-03-02T09:37:35;16.20;92.70
4453;DHT22;2239;48.152;11.584;2024-03-02T09:40:01;15.80;93.60
4453;DHT22;2239;48.152;11.584;2024-03-02T09:42:27;15.50;92.90
4453;DHT22;2239;48.152;11.584;2024-03-02T09:44:53;15.10;93.80
4453;DHT22;2239;48.152;11.584;2024-03-02T09:47:18;15.30;93.00
4453;DHT22;2239;48.152;11.584;2024-03-02T09:49:44;15.20;92.60
4453;DHT22;2239;48.152;11.584;2024-03-02T09:52:10;14.90;93.10
4453;DHT22;2239;48.152;11.584;2024-03-02T09:54:36;14.60;94.50
4453;DHT22;2239;48.152;11.584;2024-03-02T09:57:02;14.70;93.80
4453;DHT22;2239;48.152;11.584;2024-03-02T09:59:28;14.20;93.80
4453;DHT22;2239;48.152;11.584;2024-03-02T10:01:58;14.30;94.60
4453;DHT22;2239;48.152;11.584;2024-03-02T10:04:27;14.30;94.40
4453;DHT22;2239;48.152;11.584;2024-03-02T10:07:14;14.70;94.80
4453;DHT22;2239;48.152;11.584;2024-03-02T10:09:47;15.30;93.60
4453;DHT22;2239;48.152;11.584;2024-03-02T10:12:15;15.70;92.90
4453;DHT22;2239;48.152;11.584;2024-03-02T10:14:42;15.80;93.00
4453;DHT22;2239;48.152;11.584;2024-03-02T10:17:10;15.50;92.40
4453;DHT22;2239;48.152;11.584;2024-03-02T10:19:36;14.80;92.70
4453;DHT22;2239;48.152;11.584;2024-03-02T10:22:03;14.40;93.50
4453;DHT22;2239;48.152;11.584;2024-03-02T10:24:42;14.80;94.10
4453;DHT22;2239;48.152;11.584;2024-03-02T10:27:25;15.40;93.10
4453;DHT22;2239;48.152;11.584;2024-03-02T10:29:51;15.60;91.90
4453;DHT22;2239;48.152;11.584;2024-03-02T10:32:17;15.40;91.70
4453;DHT22;2239;48.152;11.584;2024-03-02T10:34:44;15.40;92.30
4453;DHT22;2239;48.152;11.584;2024-03-02T10:37:11;15.10;92.50
4453;DHT22;2239;48.152;11.584;2024-03-02T10:39:38;15.10;93.10
4453;DHT22;2239;48.152;11.584;2024-03-02T10:42:07;15.10;92.30
4453;DHT22;2239;48.152;11.584;2024-03-02T10:44:33;15.00;92.50
4453;DHT22;2239;48.152;11.584;2024-03-02T10:47:02;15.00;92.40
4453;DHT22;2239;48.152;11.584;2024-03-02T10:49:32;14.90;92.60
4453;DHT22;2239;48.152;11.584;2024-03-02T10:52:01;15.00;93.00
4453;DHT22;2239;48.152;11.584;2024-03-02T10:54:27;15.50;92.30
4453;DHT22;2239;48.152;11.584;2024-03-02T10:56:57;15.60;92.30
4453;DHT22;2239;48.152;11.584;2024-03-02T10:59:28;15.50;92.60
4453;DHT22;2239;48.152;11.584;2024-03-02T11:01:58;15.20;93.10
4453;DHT22;2239;48.152;11.584;2024-03-02T11:04:25;15.20;93.30
4453;DHT22;2239;48.152;11.584;2024-03-02T11:06:52;15.10;93.20
4453;DHT22;2239;48.152;11.584;2024-03-02T11:09:23;14.80;93.60
4453;DHT22;2239;48.152;11.584;2024-03-02T11:11:56;14.90;93.50
4453;DHT22;2239;48.152;11.584;2024-03-02T11:14:25;14.50;94.10
4453;DHT22;2239;48.152;11.584;2024-03-02T11:16:51;14.80;94.30
4453;DHT22;2239;48.152;11.584;2024-03-02T11:19:18;14.90;94.60
4453;DHT22;2239;48.152;11.584;2024-03-02T11:21:44;15.10;94.30
4453;DHT22;2239;48.152;11.584;2024-03-02T11:26:49;15.30;93.80
4453;DHT22;2239;48.152;11.584;2024-03-02T11:32:01;15.30;93.60
4453;DHT22;2239;48.152;11.584;2024-03-02T11:34:36;15.30;93.80
4453;DHT22;2239;48.152;11.584;2024-03-02T11:37:05;15.10;94.20
4453;DHT22;2239;48.152;11.584;2024-03-02T11:39:31;15.10;94.00
4453;DHT22;2239;48.152;11.584;2024-03-02T11:41:57;15.20;93.90
4453;DHT22;2239;48.152;11.584;2024-03-02T11:44:25;15.30;93.60
4453;DHT22;2239;48.152;11.584;2024-03-02T11:47:00;15.40;93.70
4453;DHT22;2239;48.152;11.584;2024-03-02T11:49:37;15.80;93.10
4453;DHT22;2239;48.152;11.584;2024-03-02T11:52:05;16.00;92.50
4453;DHT22;2239;48.152;11.584;2024-03-02T11:54:33;16.10;92.60
4453;DHT22;2239;48.152;11.584;2024-03-02T11:57:01;16.10;93.10
4453;DHT22;2239;48.152;11.584;2024-03-02T11:59:29;15.90;93.40
4453;DHT22;2239;48.152;11.584;2024-03-02T12:01:54;15.90;94.10
4453;DHT22;2239;48.152;11.584;2024-03-02T12:04:26;15.90;93.40
4453;DHT22;2239;48.152;11.584;2024-03-02T12:06:56;16.10;94.00
4453;DHT22;2239;48.152;11.584;2024-03-02T12:09:25;16.10;93.40
4453;DHT22;2239;48.152;11.584;2024-03-02T12:12:08;16.00;94.00
4453;DHT22;2239;48.152;11.584;2024-03-02T12:14:36;16.20;94.10
4453;DHT22;2239;48.152;11.584;2024-03-02T12:17:02;16.10;94.10
4453;DHT22;2239;48.152;11.584;2024-03-02T12:19:28;16.00;94.40
4453;DHT22;2239;48.152;11.584;2024-03-02T12:21:56;16.20;94.00
4453;DHT22;2239;48.152;11.584;2024-03-02T12:24:22;16.10;93.50
4453;DHT22;2239;48.152;11.584;2024-03-02T12:26:49;16.10;93.60
4453;DHT22;2239;48.152;11.584;2024-03-02T12:29:15;15.70;94.00
4453;DHT22;2239;48.152;11.584;2024-03-02T12:31:42;15.50;94.90
4453;DHT22;2239;48.152;11.584;2024-03-02T12:34:08;15.30;95.00
4453;DHT22;2239;48.152;11.584;2024-03-02T12:36:38;15.10;95.80
4453;DHT22;2239;48.152;11.584;2024-03-02T12:39:04;14.60;96.40
4453;DHT22;2239;48.152;11.584;2024-03-02T12:41:30;14.50;97.20
4453;DHT22;2239;48.152;11.584;2024-03-02T12:43:56;14.60;97.40
4453;DHT22;2239;48.152;11.584;2024-03-02T12:46:21;15.00;97.50
4453;DHT22;2239;48.152;11.584;2024-03-02T12:48:47;15.10;96.90
4453;DHT22;2239;48.152;11.584;2024-03-02T12:51:13;15.10;96.80
4453;DHT22;2239;48.152;11.584;2024-03-02T12:53:39;15.00;96.90
4453;DHT22;2239;48.152;11.584;2024-03-02T12:56:05;14.70;97.20
4453;DHT22;2239;48.152;11.584;2024-03-02T12:58:39;14.60;97.30
4453;DHT22;2239;48.152;11.584;2024-03-02T13:01:09;14.50;97.80
4453;DHT22;2239;48.152;11.584;2024-03-02T13:03:38;14.30;98.20
4453;DHT22;2239;48.152;11.584;2024-03-02T13:06:06;14.20;98.70
4453;DHT22;2239;48.152;11.584;2024-03-02T13:08:32;14.10;98.80
4453;DHT22;2239;48.152;11.584;2024-03-02T13:10:58;14.20;99.10
4453;DHT22;2239;48.152;11.584;2024-03-02T13:13:23;14.30;98.70
4453;DHT22;2239;48.152;11.584;2024-03-02T13:15:49;14.40;98.60
4453;DHT22;2239;48.152;11.584;2024-03-02T13:18:14;14.30;98.50
4453;DHT22;2239;48.152;11.584;2024-03-02T13:20:42;14.30;98.60
4453;DHT22;2239;48.152;11.584;2024-03-02T13:23:08;14.40;98.50
4453;DHT22;2239;48.152;11.584;2024-03-02T13:25:33;14.40;98.50
4453;DHT22;2239;48.152;11.584;2024-03-02T13:27:59;14.40;98.30
4453;DHT22;2239;48.152;11.584;2024-03-02T13:30:25;14.40;98.60
4453;DHT22;2239;48.152;11.584;2024-03-02T13:32:51;14.50;98.60
4453;DHT22;2239;48.152;11.584;2024-03-02T13:35:18;14.60;98.50
4453;DHT22;2239;48.152;11.584;2024-03-02T13:37:44;14.60;98.30
4453;DHT22;2239;48.152;11.584;2024-03-02T13:40:09;14.40;98.50
4453;DHT22;2239;48.152;11.584;2024-03-02T13:42:39;14.10;99.00
4453;DHT22;2239;48.152;11.584;2024-03-02T13:45:06;14.20;99.50
4453;DHT22;2239;48.152;11.584;2024-03-02T13:47:32;14.30;99.50
4453;DHT22;2239;48.152;11.584;2024-03-02T13:49:57;14.60;99.00
4453;DHT22;2239;48.152;11.584;2024-03-02T13:52:23;14.70;99.00
4453;DHT22;2239;48.152;11.584;2024-03-02T13:54:51;14.90;98.70
4453;DHT22;2239;48.152;11.584;2024-03-02T13:57:17;15.10;98.20
4453;DHT22;2239;48.152;11.584;2024-03-02T13:59:45;15.10;97.30
4453;DHT22;2239;48.152;11.584;2024-03-02T14:02:12;15.10;97.10
4453;DHT22;2239;48.152;11.584;2024-03-02T14:04:38;15.00;97.00
4453;DHT22;2239;48.152;11.584;2024-03-02T14:07:07;14.70;97.10
4453;DHT22;2239;48.152;11.584;2024-03-02T14:09:33;14.50;96.50
4453;DHT22;2239;48.152;11.584;2024-03-02T14:11:59;14.40;96.40
4453;DHT22;2239;48.152;11.584;2024-03-02T14:14:26;14.40;96.30
4453;DHT22;2239;48.152;11.584;2024-03-02T14:16:55;14.30;96.20
4453;DHT22;2239;48.152;11.584;2024-03-02T14:19:32;14.20;96.40
4453;DHT22;2239;48.152;11.584;2024-03-02T14:21:58;14.30;96.50
4453;DHT22;2239;48.152;11.584;2024-03-02T14:24:23;14.40;96.40
4453;DHT22;2239;48.152;11.584;2024-03-02T14:26:53;14.60;96.00
4453;DHT22;2239;48.152;11.584;2024-03-02T14:29:19;14.70;95.60
4453;DHT22;2239;48.152;11.584;2024-03-02T14:31:44;14.80;95.40
4453;DHT22;2239;48.152;11.584;2024-03-02T14:34:16;15.10;95.10
4453;DHT22;2239;48.152;11.584;2024-03-02T14:36:41;15.20;94.60
4453;DHT22;2239;48.152;11.584;2024-03-02T14:39:10;15.00;94.10
4453;DHT22;2239;48.152;11.584;2024-03-02T14:41:36;14.80;94.30
4453;DHT22;2239;48.152;11.584;2024-03-02T14:44:01;14.70;94.50
4453;DHT22;2239;48.152;11.584;2024-03-02T14:46:27;14.70;94.50
4453;DHT22;2239;48.152;11.584;2024-03-02T14:48:53;14.70;94.80
4453;DHT22;2239;48.152;11.584;2024-03-02T14:51:18;14.40;95.30
4453;DHT22;2239;48.152;11.584;2024-03-02T14:53:44;14.30;95.60
4453;DHT22;2239;48.152;11.584;2024-03-02T14:56:09;14.20;95.80
4453;DHT22;2239;48.152;11.584;2024-03-02T14:58:35;14.20;95.80
4453;DHT22;2239;48.152;11.584;2024-03-02T15:01:03;14.30;95.50
4453;DHT22;2239;48.152;11.584;2024-03-02T15:03:29;14.30;95.70
4453;DHT22;2239;48.152;11.584;2024-03-02T15:05:54;14.40;95.70
4453;DHT22;2239;48.152;11.584;2024-03-02T15:08:20;14.50;95.80
4453;DHT22;2239;48.152;11.584;2024-03-02T15:10:45;14.40;96.00
4453;DHT22;2239;48.152;11.584;2024-03-02T15:13:11;14.10;96.40
4453;DHT22;2239;48.152;11.584;2024-03-02T15:15:37;14.00;96.70
4453;DHT22;2239;48.152;11.584;2024-03-02T15:18:02;14.00;97.10
4453;DHT22;2239;48.152;11.584;2024-03-02T15:20:29;13.80;97.20
4453;DHT22;2239;48.152;11.584;2024-03-02T15:22:55;13.60;97.60
4453;DHT22;2239;48.152;11.584;2024-03-02T15:25:20;13.60;97.90
4453;DHT22;2239;48.152;11.584;2024-03-02T15:27:46;13.60;98.30
4453;DHT22;2239;48.152;11.584;2024-03-02T15:30:11;13.60;98.60
4453;DHT22;2239;48.152;11.584;2024-03-02T15:32:37;13.50;98.90
4453;DHT22;2239;48.152;11.584;2024-03-02T15:35:05;13.40;99.40
4453;DHT22;2239;48.152;11.584;2024-03-02T15:37:31;13.30;99.80
4453;DHT22;2239;48.152;11.584;2024-03-02T15:39:56;13.40;99.60
4453;DHT22;2239;48.152;11.584;2024-03-02T15:42:22;13.40;99.40
4453;DHT22;2239;48.152;11.584;2024-03-02T15:44:49;13.30;99.30
4453;DHT22;2239;48.152;11.584;2024-03-02T15:47:14;13.30;99.10
4453;DHT22;2239;48.152;11.584;2024-03-02T15:49:40;13.30;99.10
4453;DHT22;2239;48.152;11.584;2024-03-02T15:52:06;13.20;99.40
4453;DHT22;2239;48.152;11.584;2024-03-02T15:54:31;13.20;99.90
4453;DHT22;2239;48.152;11.584;2024-03-02T15:56:57;13.30;99.90
4453;DHT22;2239;48.152;11.584;2024-03-02T15:59:22;13.20;99.90
4453;DHT22;2239;48.152;11.584;2024-03-02T16:01:48;13.10;99.90